Tiempo atmosférico en la estación meteorológica de Villena, Alacant/Alicante (486 m.)



Fecha
DESCASC
Temp. máxima en grados centígrados (hora)
DESCASC
Temp. mínima en grados centígrados (hora)
DESCASC
Temp. media en grados centígrados
DESCASC
Racha de viento máxima en m/sg (hora)
DESCASC
Velocidad máxima media en intervalos de 10 minutos(hora)
DESCASC
Precipitaciones diarias en mm
DESCASC
Precipitaciones de 00:00 a 06:00 en mm
DESCASC
Precipitaciones de 06:00 a 12:00 en mm
DESCASC
Precipitaciones de 12:00 a 18:00 en mm
DESCASC
Precipitaciones de 18:00 a 24:00 en mm
DESCASC
29-10-2020 24.5 (14:00) 5 (07:40) 14.8 9.72 (14:00) 6.11 (15:30) -- -- 0 0 0
28-10-2020 24.3 (15:20) 7.2 (07:30) 15.7 9.17 (02:00) 6.11 (02:00) -- -- -- -- --
27-10-2020 19 (16:00) 0.7 (00:00) 9.8 10.28 (11:40) 6.11 (11:30) -- -- -- -- --
26-10-2020 16.1 (14:20) 8.6 (00:00) 12.4 17.22 (12:10) 10 (12:10) -- -- -- -- --
25-10-2020 24.4 (15:50) 2 (00:00) 13.2 8.61 (16:20) 5 (15:10) -- -- -- -- --
24-10-2020 20.8 (16:00) 2.1 (00:00) 11.4 9.17 (14:50) 5.28 (15:10) -- -- -- -- --
23-10-2020 20.8 (14:30) 7.9 (00:00) 14.3 9.72 (14:20) 5.56 (12:50) -- -- -- -- --
22-10-2020 18.5 (13:00) 14.2 (00:00) 16.3 3.33 (07:20) 2.5 (03:20) -- -- -- -- --
21-10-2020 26.8 (14:50) 10.8 (00:00) 18.8 10.83 (13:30) 7.5 (13:30) -- -- -- -- --
20-10-2020 22.5 (15:10) 5 (00:00) 13.8 9.17 (17:20) 6.39 (17:20) -- -- -- -- --
19-10-2020 21.9 (15:00) 2.2 (00:00) 12 11.67 (13:10) 6.11 (13:40) -- -- -- -- --
18-10-2020 22.6 (14:40) 0.7 (00:00) 11.7 7.5 (18:30) 5.28 (18:30) -- -- -- -- --
17-10-2020 22.8 (15:40) -1 (-00:0) 10.9 8.33 (14:20) 4.17 (15:00) -- -- -- -- --
16-10-2020 20.5 (16:20) 0.3 (00:00) 10.4 8.33 (15:30) 4.17 (11:50) -- -- -- -- --
15-10-2020 20.3 (16:00) 2.7 (00:00) 11.5 11.94 (15:30) 6.94 (14:50) -- -- -- -- --
14-10-2020 22.5 (14:30) 4.7 (00:00) 13.6 12.5 (17:40) 7.78 (17:50) -- -- -- -- --
13-10-2020 25.3 (16:30) 4.2 (00:00) 14.7 12.22 (16:40) 6.11 (16:50) -- -- -- -- --
12-10-2020 21.7 (16:50) 5.9 (00:00) 13.8 8.61 (10:00) 5.28 (10:00) -- -- -- -- --
11-10-2020 23.7 (16:10) 8.1 (00:00) 15.9 9.72 (17:30) 5.83 (17:30) -- -- -- -- --
10-10-2020 23.2 (16:50) 12.5 (00:00) 17.9 7.5 (18:20) 5.56 (18:20) -- -- -- -- --
09-10-2020 27.2 (15:20) 9.9 (00:00) 18.6 8.61 (17:30) 6.11 (17:30) -- -- -- -- --
08-10-2020 25.4 (15:30) 6.7 (00:00) 16 8.33 (13:40) 5.83 (14:00) -- -- -- -- --
07-10-2020 30 (16:10) 9.1 (00:00) 19.6 8.06 (19:50) 6.11 (19:50) -- -- -- -- --
06-10-2020 27.3 (17:20) 3.8 (00:00) 15.5 9.72 (12:30) 5 (14:00) -- -- -- -- --
05-10-2020 21.2 (15:00) 7 (00:00) 14.1 10.28 (13:30) 6.94 (16:30) -- -- -- -- --
04-10-2020 23 (15:30) 1.1 (00:00) 12.1 15.28 (19:10) 8.61 (19:10) -- -- -- -- --
03-10-2020 19.1 (17:30) 7.6 (00:00) 13.4 15 (14:30) 9.17 (14:30) -- -- -- -- --
02-10-2020 25.5 (15:00) 9.8 (00:00) 17.7 17.22 (15:10) 10.28 (15:30) -- -- -- -- --
01-10-2020 30 (16:40) 7.8 (00:00) 18.9 9.44 (13:00) 5.56 (13:30) -- -- -- -- --

Gráficas

Temp. máximas Temp. mínimas Temp. medias Precipitaciones Rachas de viento máximas Velocidades máximas media en intervalos de 10 minutos

Datos horarios

Fecha y hora oficial Temperatura (ºC) Velocidad del viento (km/h) Dirección del viento Racha (km/h) Dirección de racha Precipitación (mm) Presión (hPa) Tendencia (hPa) Humedad (%)
2020-10-30 23:00:00 7.4 3 Norte 5 Sur 0 -- -- 81
2020-10-30 22:00:00 9.6 5 Sur 10 Sudeste 0 -- -- 73
2020-10-30 21:00:00 12.4 8 Sur 13 Sudeste 0 -- -- 64
2020-10-30 20:00:00 13.9 8 Sudeste 18 Sudeste 0 -- -- 57
2020-10-30 19:00:00 16 13 Sudeste 19 Sudeste 0 -- -- 54
2020-10-30 18:00:00 19.4 14 Sudeste 26 Sudeste 0 -- -- 48
2020-10-30 17:00:00 22.9 17 Sudeste 24 Sudeste 0 -- -- 43
2020-10-30 16:00:00 24.8 15 Sudeste 23 Sudeste 0 -- -- 37
2020-10-30 15:00:00 25.1 13 Sudeste 20 Sudeste 0 -- -- 37
2020-10-30 14:00:00 24.7 9 Sudeste 21 Este 0 -- -- 38
2020-10-30 13:00:00 24 13 Sudeste 22 Sudeste 0 -- -- 40
2020-10-30 12:00:00 21.3 4 Este 9 Este 0 -- -- 52
2020-10-30 11:00:00 16.9 3 Noroeste 7 Norte 0 -- -- 68
2020-10-30 10:00:00 12.6 3 Norte 6 Norte 0 -- -- 88
2020-10-30 09:00:00 7.7 0 Calma -- -- 0 -- -- 98
2020-10-30 08:00:00 2.6 0 Calma -- -- 0 -- -- 97
2020-10-30 07:00:00 3 0 Calma -- -- 0 -- -- 96
2020-10-30 06:00:00 3.3 0 Calma -- -- 0 -- -- 96
2020-10-30 05:00:00 4.3 0 Calma -- -- 0 -- -- 95
2020-10-30 04:00:00 4.4 0 Calma -- -- 0 -- -- 96
2020-10-30 03:00:00 4.8 0 Calma -- -- 0 -- -- 94
2020-10-30 02:00:00 5.8 0 Calma -- -- 0 -- -- 94
2020-10-30 01:00:00 6.6 0 Calma 4 Oeste 0 -- -- 93
2020-10-30 00:00:00 7.8 4 Oeste 5 Oeste 0 -- -- 92
2020-10-29 23:00:00 9.5 3 Oeste 4 Oeste 0 -- -- 91
2020-10-29 22:00:00 11.4 2 Sudoeste 12 Sudeste 0 -- -- 90
2020-10-29 21:00:00 13.5 11 Sudeste 15 Sudeste 0 -- -- 88
2020-10-29 20:00:00 14.8 10 Sudeste 18 Sudeste 0 -- -- 84
2020-10-29 19:00:00 16.2 14 Sudeste 21 Este 0 -- -- 79
2020-10-29 18:00:00 18.4 13 Sudeste 24 Sudeste 0 -- -- 70
2020-10-29 17:00:00 20.8 18 Sudeste 24 Sudeste 0 -- -- 61
2020-10-29 16:00:00 22.3 18 Sudeste 29 Sudeste 0 -- -- 54
2020-10-29 15:00:00 23.5 21 Sudeste 30 Sudeste 0 -- -- 49
2020-10-29 14:00:00 24.5 17 Sur 35 Este 0 -- -- 41
2020-10-29 13:00:00 23.4 2 Oeste 10 Oeste 0 -- -- 44
2020-10-29 12:00:00 20.8 4 Norte 15 Noroeste 0 -- -- 53
2020-10-29 11:00:00 17.8 4 Noroeste 10 Noroeste 0 -- -- 62
2020-10-29 10:00:00 14.2 6 Norte 12 Norte 0 -- -- 74
2020-10-29 09:00:00 10.2 0 Calma 5 Sudoeste 0 -- -- 91
2020-10-29 08:00:00 5.6 3 Sudoeste 9 Noroeste 0 -- -- 94
2020-10-29 07:00:00 5.8 5 Norte 10 Norte 0 -- -- 93
2020-10-29 06:00:00 6.3 8 Noroeste 12 Noroeste 0 -- -- 93
2020-10-29 05:00:00 6.8 6 Norte 12 Norte 0 -- -- 92
2020-10-29 04:00:00 7.4 9 Norte 15 Norte 0 -- -- 90
2020-10-29 03:00:00 8.2 7 Norte 13 Norte 0 -- -- 89
2020-10-29 02:00:00 8.6 8 Norte 16 Norte 0 -- -- 88
2020-10-29 01:00:00 8.8 9 Norte 13 Norte 0 -- -- 87
2020-10-29 00:00:00 9.8 8 Norte 14 Noroeste 0 -- -- 81
2020-10-28 23:00:00 9.6 8 Norte 15 Noroeste 0 -- -- 85
2020-10-28 22:00:00 10 0 Calma 6 Noroeste 0 -- -- 72
2020-10-28 21:00:00 12.3 3 Sudeste 9 Sudeste 0 -- -- 70
2020-10-28 20:00:00 14.2 9 Sudeste 17 Sudeste 0 -- -- 63
2020-10-28 19:00:00 16.6 15 Sudeste 20 Sudeste 0 -- -- 58
2020-10-28 18:00:00 19.9 12 Este 15 Sudeste 0 -- -- 47
2020-10-28 17:00:00 23.5 10 Oeste 19 Sudoeste 0 -- -- 42
2020-10-28 16:00:00 24.2 12 Oeste 22 Oeste 0 -- -- 40
2020-10-28 15:00:00 24 11 Sudoeste 25 Noroeste 0 -- -- 40
2020-10-28 14:00:00 22.8 9 Noroeste 23 Noroeste 0 -- -- 44
2020-10-28 13:00:00 21.7 12 Oeste 26 Oeste 0 -- -- 45
2020-10-28 12:00:00 19.6 7 Noroeste 27 Noroeste 0 -- -- 51
2020-10-28 11:00:00 17.5 14 Oeste 26 Oeste 0 -- -- 56
2020-10-28 10:00:00 15.2 15 Oeste 29 Oeste 0 -- -- 64
2020-10-28 09:00:00 12.9 17 Noroeste 25 Noroeste 0 -- -- 71
2020-10-28 08:00:00 8.4 7 Norte 12 Norte 0 -- -- 85
2020-10-28 07:00:00 8.1 3 Nordeste 24 Oeste 0 -- -- 81
2020-10-28 06:00:00 9.7 15 Noroeste 28 Oeste 0 -- -- 78
2020-10-28 05:00:00 10.1 11 Noroeste 29 Oeste 0 -- -- 75
2020-10-28 04:00:00 10.1 14 Oeste 32 Oeste 0 -- -- 73
2020-10-28 03:00:00 10.6 18 Oeste 32 Oeste 0 -- -- 68
2020-10-28 02:00:00 11.5 22 Oeste 33 Noroeste 0 -- -- 62
2020-10-28 01:00:00 11.6 17 Oeste 28 Oeste 0 -- -- 59
2020-10-28 00:00:00 11.4 15 Noroeste 22 Oeste 0 -- -- 57
2020-10-27 23:00:00 11.5 11 Oeste 22 Oeste 0 -- -- 55
2020-10-27 22:00:00 11.8 18 Oeste 24 Oeste 0 -- -- 53
2020-10-27 21:00:00 11.8 12 Oeste 17 Oeste 0 -- -- 56
2020-10-27 20:00:00 12.3 7 Sudoeste 11 Sudoeste 0 -- -- 52
2020-10-27 19:00:00 14.2 5 Norte 22 Noroeste 0 -- -- 49
2020-10-27 18:00:00 15.7 13 Noroeste 28 Oeste 0 -- -- 43
2020-10-27 17:00:00 17.6 15 Noroeste 32 Oeste 0 -- -- 40
2020-10-27 16:00:00 19 17 Noroeste 32 Oeste 0 -- -- 37
2020-10-27 15:00:00 18.1 19 Noroeste 33 Oeste 0 -- -- 39
2020-10-27 14:00:00 17.4 22 Noroeste 35 Oeste 0 -- -- 41
2020-10-27 13:00:00 16.7 21 Noroeste 36 Noroeste 0 -- -- 42
2020-10-27 12:00:00 15.6 22 Noroeste 37 Noroeste 0 -- -- 45
2020-10-27 11:00:00 14.1 20 Noroeste 31 Noroeste 0 -- -- 50
2020-10-27 10:00:00 11.8 9 Norte 18 Norte 0 -- -- 58
2020-10-27 09:00:00 6.8 3 Norte 5 Norte 0 -- -- 81
2020-10-27 08:00:00 1.2 5 Este 10 Noroeste 0 -- -- 89
2020-10-27 07:00:00 0.9 3 Norte 9 Oeste 0 -- -- 88
2020-10-27 06:00:00 2.3 3 Oeste 10 Noroeste 0 -- -- 86
2020-10-27 05:00:00 2.9 2 Sudeste 9 Norte 0 -- -- 78
2020-10-27 04:00:00 5.9 5 Norte 18 Oeste 0 -- -- 75
2020-10-27 03:00:00 6.5 4 Noroeste 14 Noroeste 0 -- -- 72
2020-10-27 02:00:00 7.7 6 Norte 22 Noroeste 0 -- -- 67
2020-10-27 01:00:00 9.3 15 Noroeste 24 Noroeste 0 -- -- 62
2020-10-27 00:00:00 8.6 6 Norte 22 Oeste 0 -- -- 63
2020-10-26 23:00:00 9.5 13 Noroeste 28 Noroeste 0 -- -- 60
2020-10-26 22:00:00 9.4 15 Noroeste 22 Oeste 0 -- -- 60
2020-10-26 21:00:00 9.8 10 Oeste 21 Oeste 0 -- -- 57
2020-10-26 20:00:00 11.1 12 Noroeste 27 Noroeste 0 -- -- 54
2020-10-26 19:00:00 12 18 Noroeste 33 Noroeste 0 -- -- 52
2020-10-26 18:00:00 12.9 15 Noroeste 43 Noroeste 0 -- -- 49
2020-10-26 17:00:00 14.7 24 Noroeste 50 Oeste 0 -- -- 44
2020-10-26 16:00:00 15.7 24 Noroeste 49 Noroeste 0 -- -- 43
2020-10-26 15:00:00 15.8 35 Noroeste 51 Noroeste 0 -- -- 43
2020-10-26 14:00:00 16 30 Noroeste 52 Noroeste 0 -- -- 43
2020-10-26 13:00:00 14.2 24 Noroeste 62 Noroeste 0 -- -- 49
2020-10-26 12:00:00 14.9 33 Noroeste 53 Oeste 0 -- -- 51
2020-10-26 11:00:00 13.8 25 Noroeste 46 Noroeste 0 -- -- 57
2020-10-26 10:00:00 12.6 28 Noroeste 48 Noroeste 0 -- -- 61
2020-10-26 09:00:00 11.1 9 Noroeste 27 Noroeste 0 -- -- 65
2020-10-26 08:00:00 10.2 14 Noroeste 31 Norte 0 -- -- 68
2020-10-26 07:00:00 11.7 16 Noroeste 39 Noroeste 0 -- -- 66
2020-10-26 06:00:00 12.5 12 Oeste 39 Oeste 0 -- -- 71
2020-10-26 05:00:00 12.5 13 Noroeste 26 Noroeste 0 -- -- 78
2020-10-26 04:00:00 12.7 10 Noroeste 20 Noroeste 0 -- -- 78
2020-10-26 03:00:00 12.7 13 Noroeste 31 Noroeste 0 -- -- 85
2020-10-26 02:00:00 11 5 Sudoeste 14 Este 0 -- -- 74
2020-10-26 01:00:00 13.1 10 Sudeste 17 Sudeste 0 -- -- 65
2020-10-26 00:00:00 12.5 3 Este 11 Noroeste 0 -- -- 67
2020-10-25 23:00:00 13 0 Calma 31 Oeste 0 -- -- 64
2020-10-25 22:00:00 14.4 12 Noroeste 21 Noroeste 0 -- -- 57
2020-10-25 21:00:00 14.9 12 Oeste 23 Oeste 0 -- -- 51
2020-10-25 20:00:00 13.7 4 Oeste 13 Sudeste 0 -- -- 68
2020-10-25 19:00:00 16.4 11 Este 18 Sudeste 0 -- -- 59
2020-10-25 18:00:00 19.7 14 Sudeste 26 Sudoeste 0 -- -- 47
2020-10-25 17:00:00 23.1 14 Sudoeste 31 Oeste 0 -- -- 30
2020-10-25 16:00:00 24.3 15 Oeste 30 Sudoeste 0 -- -- 31
2020-10-25 15:00:00 23.3 5 Noroeste 24 Sudoeste 0 -- -- 35
2020-10-25 14:00:00 22.7 12 Oeste 23 Noroeste 0 -- -- 37
2020-10-25 13:00:00 21.7 11 Oeste 24 Sudoeste 0 -- -- 39
2020-10-25 12:00:00 20 8 Sudoeste 17 Oeste 0 -- -- 47
2020-10-25 11:00:00 18.1 5 Sudoeste 22 Oeste 0 -- -- 56
2020-10-25 10:00:00 15.9 13 Oeste 22 Noroeste 0 -- -- 65
2020-10-25 09:00:00 9.9 5 Oeste 13 Sudoeste 0 -- -- 97
2020-10-25 08:00:00 3.3 2 Oeste 4 Oeste 0 -- -- 96
2020-10-25 07:00:00 2.8 5 Norte 8 Noroeste 0 -- -- 94
2020-10-25 06:00:00 2.3 0 Calma -- -- 0 -- -- 93
2020-10-25 05:00:00 3.1 0 Calma -- -- 0 -- -- 92
2020-10-25 04:00:00 3.6 0 Calma 5 Este 0 -- -- 89
2020-10-25 03:00:00 5.8 3 Este 10 Oeste 0 -- -- 90
2020-10-25 02:00:00 4.4 0 Calma 3 Oeste 0 -- -- 89
2020-10-25 01:00:00 5.7 2 Norte 6 Noroeste 0 -- -- 90
2020-10-25 00:00:00 6.3 4 Norte 6 Noroeste 0 -- -- 86
2020-10-24 23:00:00 7 3 Sudoeste 5 Sudoeste 0 -- -- 83
2020-10-24 22:00:00 8.4 2 Sudoeste 4 Sudoeste 0 -- -- 81
2020-10-24 21:00:00 11.6 3 Sudeste 4 Sudeste 0 -- -- 67
2020-10-24 20:00:00 14.2 3 Sudoeste 15 Noroeste 0 -- -- 60
2020-10-24 19:00:00 17.9 9 Noroeste 24 Oeste 0 -- -- 51
2020-10-24 18:00:00 20.3 14 Oeste 25 Oeste 0 -- -- 44
2020-10-24 17:00:00 20.6 13 Noroeste 28 Oeste 0 -- -- 45
2020-10-24 16:00:00 20.8 15 Oeste 32 Oeste 0 -- -- 43
2020-10-24 15:00:00 20.2 17 Oeste 33 Oeste 0 -- -- 46
2020-10-24 14:00:00 19.1 18 Noroeste 30 Noroeste 0 -- -- 50
2020-10-24 13:00:00 17.8 14 Noroeste 30 Norte 0 -- -- 55
2020-10-24 12:00:00 16.1 13 Noroeste 24 Noroeste 0 -- -- 61
2020-10-24 11:00:00 13.5 5 Norte 9 Nordeste 0 -- -- 72
2020-10-24 10:00:00 10.3 4 Noroeste 8 Noroeste 0 -- -- 93
2020-10-24 09:00:00 3.7 4 Nordeste 8 Noroeste 0 -- -- 96
2020-10-24 08:00:00 2.4 2 Nordeste 8 Oeste 0 -- -- 94
2020-10-24 07:00:00 2.8 2 Oeste 5 Oeste 0 -- -- 94
2020-10-24 06:00:00 4.4 3 Oeste 7 Noroeste 0 -- -- 94
2020-10-24 05:00:00 4 4 Norte 7 Oeste 0 -- -- 94
2020-10-24 04:00:00 4.2 2 Noroeste 8 Oeste 0 -- -- 91
2020-10-24 03:00:00 4.9 3 Este 6 Norte 0 -- -- 85
2020-10-24 02:00:00 7 0 Calma 11 Oeste 0 -- -- 85
2020-10-24 01:00:00 7.9 8 Noroeste 10 Noroeste 0 -- -- 86
2020-10-24 00:00:00 9.2 2 Sur 10 Sudeste 0 -- -- 78
2020-10-23 23:00:00 9.5 2 Sudeste 10 Sudeste 0 -- -- 77
2020-10-23 22:00:00 11.4 5 Oeste 15 Oeste 0.2 -- -- 72
2020-10-23 21:00:00 14.1 12 Noroeste 30 Noroeste 0 -- -- 61
2020-10-23 20:00:00 16 15 Noroeste 25 Noroeste 0 -- -- 55
2020-10-23 19:00:00 17.8 12 Noroeste 29 Oeste 0 -- -- 48
2020-10-23 18:00:00 20 12 Noroeste 28 Oeste 0 -- -- 41
2020-10-23 17:00:00 19.1 16 Noroeste 30 Oeste 0 -- -- 44
2020-10-23 16:00:00 20.3 12 Noroeste 30 Oeste 0 -- -- 46
2020-10-23 15:00:00 19.7 14 Noroeste 35 Oeste 0.2 -- -- 47
2020-10-23 14:00:00 20.1 15 Oeste 30 Oeste 0 -- -- 48
2020-10-23 13:00:00 19.6 17 Noroeste 31 Oeste 0 -- -- 52
2020-10-23 12:00:00 18.3 17 Noroeste 27 Oeste 0 -- -- 59
2020-10-23 11:00:00 16.3 9 Noroeste 18 Norte 0 -- -- 71
2020-10-23 10:00:00 11.9 2 Oeste 5 Oeste 0.2 -- -- 98
2020-10-23 09:00:00 8.6 0 Calma 9 Sudeste 0 -- -- 98
2020-10-23 08:00:00 9.2 3 Sudoeste 9 Norte 0 -- -- 97
2020-10-23 07:00:00 10.8 5 Norte 8 Noroeste 0 -- -- 97
2020-10-23 06:00:00 11.2 5 Noroeste 8 Norte 0 -- -- 96
2020-10-23 05:00:00 11.5 3 Noroeste 6 Noroeste 0.2 -- -- 96
2020-10-23 04:00:00 12.6 2 Nordeste 7 Oeste 0 -- -- 95
2020-10-23 03:00:00 12.9 4 Noroeste 7 Noroeste 0 -- -- 95
2020-10-23 02:00:00 14 0 Calma 9 Sur 0 -- -- 94
2020-10-23 01:00:00 14.5 7 Sur 11 Sur 0.2 -- -- 94
2020-10-23 00:00:00 14.7 0 Calma -- -- 0 -- -- 94
2020-10-22 23:00:00 14.6 0 Calma 8 Sur 0 -- -- 94
2020-10-22 22:00:00 15.1 8 Sudeste 10 Sudeste 0.2 -- -- 93
2020-10-22 21:00:00 15.6 0 Calma 4 Sur 0 -- -- 93
2020-10-22 20:00:00 15.6 0 Calma 6 Oeste 0.2 -- -- 93
2020-10-22 19:00:00 16 4 Sur 6 Sur 0 -- -- 92
2020-10-22 18:00:00 16.4 0 Calma 6 Norte 0.2 -- -- 90
2020-10-22 17:00:00 16.5 3 Norte 8 Norte 0 -- -- 89
2020-10-22 16:00:00 16.5 3 Norte 5 Norte 0.2 -- -- 89
2020-10-22 15:00:00 16.9 2 Norte 4 Noroeste 0 -- -- 87
2020-10-22 14:00:00 17.9 2 Norte 6 Nordeste 0 -- -- 80
2020-10-22 13:00:00 18.5 3 Norte 9 Noroeste 0 -- -- 73
2020-10-22 12:00:00 17.3 5 Norte 9 Norte 0 -- -- 78
2020-10-22 11:00:00 16.5 5 Nordeste 8 Este 0 -- -- 80
2020-10-22 10:00:00 15.6 0 Calma 7 Sur 0 -- -- 79
2020-10-22 09:00:00 14.2 3 Norte 5 Norte 0 -- -- 85
2020-10-22 08:00:00 14.6 3 Noroeste 12 Sudeste 0 -- -- 83
2020-10-22 07:00:00 15 0 Calma 10 Sur 0 -- -- 82
2020-10-22 06:00:00 15.2 8 Sur 9 Sur 0 -- -- 80
2020-10-22 05:00:00 15.3 5 Oeste 10 Sur 0 -- -- 81
2020-10-22 04:00:00 16 5 Sur 11 Sudeste 0 -- -- 76
2020-10-22 03:00:00 15.9 6 Sudeste 9 Sudeste 0 -- -- 75
2020-10-22 02:00:00 15.4 0 Calma 5 Este 0 -- -- 78
2020-10-22 01:00:00 16.4 6 Este 10 Sudeste 0 -- -- 74
2020-10-22 00:00:00 16.5 4 Sudoeste 12 Sudeste 0 -- -- 75
2020-10-21 23:00:00 17.3 4 Sur 12 Sudeste 0 -- -- 71
2020-10-21 22:00:00 18.5 11 Este 22 Este 0 -- -- 64
2020-10-21 21:00:00 19.1 9 Sudeste 19 Sudeste 0 -- -- 61
2020-10-21 20:00:00 20.2 12 Sudeste 23 Sudeste 0 -- -- 57
2020-10-21 19:00:00 22 18 Sudeste 33 Sudeste 0 -- -- 52
2020-10-21 18:00:00 23.6 23 Sudeste 33 Sudeste 0 -- -- 43
2020-10-21 17:00:00 24.4 24 Sudeste 36 Sudeste 0 -- -- 41
2020-10-21 16:00:00 26.2 23 Sur 35 Sudeste 0 -- -- 33
2020-10-21 15:00:00 26.4 27 Sudeste 37 Sudeste 0 -- -- 37
2020-10-21 14:00:00 26.1 23 Sur 39 Sur 0 -- -- 31
2020-10-21 13:00:00 25.8 26 Sudoeste 35 Sudoeste 0 -- -- 31
2020-10-21 12:00:00 24 17 Sur 23 Sur 0 -- -- 38
2020-10-21 11:00:00 19.4 2 Este 6 Este 0 -- -- 63
2020-10-21 10:00:00 13.7 2 Sur 9 Sur 0 -- -- 93
2020-10-21 09:00:00 12 0 Calma 6 Nordeste 0 -- -- 91
2020-10-21 08:00:00 12.6 2 Sudoeste 9 Oeste 0 -- -- 92
2020-10-21 07:00:00 12.5 5 Noroeste 8 Noroeste 0 -- -- 93
2020-10-21 06:00:00 12.3 0 Calma 8 Noroeste 0 -- -- 93
2020-10-21 05:00:00 12.6 5 Noroeste 9 Norte 0 -- -- 94
2020-10-21 04:00:00 13 7 Norte 9 Norte 0 -- -- 94
2020-10-21 03:00:00 12.6 2 Sur 10 Noroeste 0 -- -- 93
2020-10-21 02:00:00 12.3 4 Noroeste 12 Este 0 -- -- 93
2020-10-21 01:00:00 10.9 8 Noroeste 16 Noroeste 0 -- -- 92
2020-10-21 00:00:00 11.5 8 Norte 11 Norte 0 -- -- 88
2020-10-20 23:00:00 13.2 4 Este 10 Sur 0 -- -- 81
2020-10-20 22:00:00 14.4 5 Sudoeste 15 Sudeste 0 -- -- 85
2020-10-20 21:00:00 15.9 7 Sudoeste 22 Sur 0 -- -- 81
2020-10-20 20:00:00 17.2 17 Sudoeste 25 Sudoeste 0 -- -- 80
2020-10-20 19:00:00 18.9 10 Sudoeste 27 Sudoeste 0 -- -- 71
2020-10-20 18:00:00 20.4 18 Sur 33 Sudoeste 0 -- -- 65
2020-10-20 17:00:00 21.9 14 Sur 23 Sur 0 -- -- 58
2020-10-20 16:00:00 21.8 16 Sur 22 Sur 0 -- -- 53
2020-10-20 15:00:00 22.4 14 Sur 21 Sur 0 -- -- 48
2020-10-20 14:00:00 21.5 9 Sudoeste 20 Sudeste 0 -- -- 53
2020-10-20 13:00:00 16.6 0 Calma 7 Norte 0 -- -- 74
2020-10-20 12:00:00 14 4 Nordeste 8 Noroeste 0 -- -- 81
2020-10-20 11:00:00 12.9 3 Norte 6 Noroeste 0 -- -- 92
2020-10-20 10:00:00 11.2 0 Calma 8 Noroeste 0 -- -- 97
2020-10-20 09:00:00 9.1 0 Calma 8 Oeste 0 -- -- 97
2020-10-20 08:00:00 7.4 0 Calma 5 Sudoeste 0 -- -- 96
2020-10-20 07:00:00 6.3 4 Sudoeste 5 Sudoeste 0 -- -- 95
2020-10-20 06:00:00 5.6 2 Norte 4 Norte 0 -- -- 93
2020-10-20 05:00:00 6.4 2 Sur 5 Noroeste 0 -- -- 92
2020-10-20 04:00:00 7.2 0 Calma 9 Norte 0 -- -- 93
2020-10-20 03:00:00 8.3 4 Nordeste 10 Sudeste 0 -- -- 92
2020-10-20 02:00:00 9.4 5 Sudeste 10 Sudeste 0 -- -- 92
2020-10-20 01:00:00 9.8 5 Este 13 Sudeste 0 -- -- 91
2020-10-20 00:00:00 10.6 9 Sudeste 12 Sudeste 0 -- -- 89
2020-10-19 23:00:00 11.7 6 Sudeste 10 Este 0 -- -- 83
2020-10-19 22:00:00 12.9 4 Sudeste 14 Sur 0 -- -- 85
2020-10-19 21:00:00 14.1 12 Sur 15 Sudeste 0 -- -- 79
2020-10-19 20:00:00 16 14 Sudeste 24 Sur 0 -- -- 71
2020-10-19 19:00:00 18.1 17 Sur 25 Sur 0 -- -- 61
2020-10-19 18:00:00 20.2 19 Sur 28 Sudeste 0 -- -- 52
2020-10-19 17:00:00 21.4 18 Sur 28 Sur 0 -- -- 46
2020-10-19 16:00:00 21.7 19 Sudeste 32 Sudeste 0 -- -- 44
2020-10-19 15:00:00 21.9 22 Sudeste 35 Sur 0 -- -- 44
2020-10-19 14:00:00 21.3 21 Sudeste 42 Sudeste 0 -- -- 47
2020-10-19 13:00:00 20.5 20 Sur 27 Sudeste 0 -- -- 52
2020-10-19 12:00:00 15 3 Nordeste 9 Oeste 0 -- -- 77
2020-10-19 11:00:00 10.3 4 Oeste 9 Noroeste 0 -- -- 98
2020-10-19 10:00:00 7.5 3 Norte 5 Norte 0 -- -- 98
2020-10-19 09:00:00 6.1 0 Calma -- -- 0 -- -- 97
2020-10-19 08:00:00 5.1 0 Calma -- -- 0 -- -- 97
2020-10-19 07:00:00 4 0 Calma -- -- 0 -- -- 96
2020-10-19 06:00:00 3.1 0 Calma -- -- 0 -- -- 95
2020-10-19 05:00:00 2.2 0 Calma -- -- 0 -- -- 92
2020-10-19 04:00:00 3.1 0 Calma -- -- 0 -- -- 91
2020-10-19 03:00:00 4.6 0 Calma 2 Oeste 0 -- -- 90
2020-10-19 02:00:00 5.8 2 Norte 2 Norte 0 -- -- 89
2020-10-19 01:00:00 7.4 0 Calma 6 Sudeste 0 -- -- 90
2020-10-19 00:00:00 9.5 4 Este 8 Sudeste 0 -- -- 89
2020-10-18 23:00:00 11.6 5 Sudeste 11 Sudeste 0 -- -- 83
2020-10-18 22:00:00 12.8 9 Sudeste 13 Sudeste 0 -- -- 83
2020-10-18 21:00:00 13.9 10 Sudeste 14 Sudeste 0 -- -- 78
2020-10-18 20:00:00 15.7 12 Sur 23 Sur 0 -- -- 71
2020-10-18 19:00:00 17.9 17 Sudeste 27 Sudeste 0 -- -- 61
2020-10-18 18:00:00 20.4 17 Sur 25 Sur 0 -- -- 53
2020-10-18 17:00:00 21.7 18 Sudeste 27 Sudeste 0 -- -- 49
2020-10-18 16:00:00 22.4 15 Sur 24 Sur 0 -- -- 45
2020-10-18 15:00:00 22.5 13 Sur 26 Sudeste 0 -- -- 41
2020-10-18 14:00:00 22.1 12 Sudeste 19 Sudeste 0 -- -- 36
2020-10-18 13:00:00 20.9 4 Sudoeste 10 Sur 0 -- -- 35
2020-10-18 12:00:00 16.5 0 Calma 8 Norte 0 -- -- 51
2020-10-18 11:00:00 12.3 2 Nordeste 7 Norte 0 -- -- 61
2020-10-18 10:00:00 7.4 4 Norte 7 Norte 0 -- -- 75
2020-10-18 09:00:00 2 0 Calma 6 Oeste 0 -- -- 94
2020-10-18 08:00:00 1 4 Oeste 7 Noroeste 0 -- -- 93
2020-10-18 07:00:00 1.4 0 Calma 8 Noroeste 0 -- -- 93
2020-10-18 06:00:00 1.2 5 Norte 6 Noroeste 0 -- -- 92
2020-10-18 05:00:00 2.4 0 Calma 6 Oeste 0 -- -- 92
2020-10-18 04:00:00 3.1 5 Oeste 8 Noroeste 0 -- -- 91
2020-10-18 03:00:00 3.6 3 Oeste 6 Noroeste 0 -- -- 91
2020-10-18 02:00:00 4.7 2 Noroeste 3 Sudoeste 0 -- -- 89
2020-10-18 01:00:00 6.4 0 Calma 4 Sudoeste 0 -- -- 87
2020-10-18 00:00:00 9 0 Calma 10 Sur 0 -- -- 86
2020-10-17 23:00:00 11.2 8 Sur 12 Sudeste 0 -- -- 80
2020-10-17 22:00:00 12.5 10 Sudeste 12 Sudeste 0 -- -- 77
2020-10-17 21:00:00 14.2 9 Sudeste 15 Sudeste 0 -- -- 71
2020-10-17 20:00:00 16.2 11 Sudeste 23 Sudeste 0 -- -- 65
2020-10-17 19:00:00 20.2 8 Sudeste 16 Sudeste 0 -- -- 46
2020-10-17 18:00:00 22.2 6 Noroeste 19 Noroeste 0 -- -- 25
2020-10-17 17:00:00 22.6 13 Noroeste 25 Noroeste 0 -- -- 25
2020-10-17 16:00:00 22.5 11 Noroeste 25 Oeste 0 -- -- 25
2020-10-17 15:00:00 22.5 15 Oeste 30 Oeste 0 -- -- 25
2020-10-17 14:00:00 21.3 13 Oeste 25 Sudoeste 0 -- -- 27
2020-10-17 13:00:00 19.6 8 Sudoeste 16 Oeste 0 -- -- 30
2020-10-17 12:00:00 15.5 4 Norte 10 Norte 0 -- -- 38
2020-10-17 11:00:00 11.1 5 Norte 12 Noroeste 0 -- -- 53
2020-10-17 10:00:00 6.2 5 Norte 8 Norte 0 -- -- 70
2020-10-17 09:00:00 0.7 3 Norte 5 Norte 0 -- -- 93
2020-10-17 08:00:00 -0.9 3 Noroeste 5 Noroeste 0 -- -- 91
2020-10-17 07:00:00 -0.3 4 Noroeste 7 Noroeste 0 -- -- 90
2020-10-17 06:00:00 0.1 2 Noroeste 8 Norte 0 -- -- 90
2020-10-17 05:00:00 0.5 3 Norte 5 Norte 0 -- -- 90
2020-10-17 04:00:00 1.1 6 Noroeste 8 Norte 0 -- -- 90
2020-10-17 03:00:00 1.4 0 Calma -- -- 0 -- -- 89
2020-10-17 02:00:00 2.7 0 Calma 3 Noroeste 0 -- -- 88
2020-10-17 01:00:00 4.2 0 Calma 5 Nordeste 0 -- -- 84
2020-10-17 00:00:00 6.8 3 Sudoeste 9 Sudeste 0 -- -- 77
2020-10-16 23:00:00 9.3 6 Sur 11 Sudeste 0 -- -- 75
2020-10-16 22:00:00 10 8 Sur 16 Sudeste 0 -- -- 71
2020-10-16 21:00:00 11.3 13 Sudeste 16 Sudeste 0 -- -- 68
2020-10-16 20:00:00 13.7 6 Sudeste 21 Sur 0 -- -- 58
2020-10-16 19:00:00 17.1 5 Nordeste 19 Noroeste 0 -- -- 42
2020-10-16 18:00:00 19.4 7 Noroeste 22 Oeste 0 -- -- 27
2020-10-16 17:00:00 20 12 Noroeste 28 Noroeste 0 -- -- 28
2020-10-16 16:00:00 20.2 13 Oeste 30 Oeste 0 -- -- 25
2020-10-16 15:00:00 19.5 12 Oeste 26 Noroeste 0 -- -- 27
2020-10-16 14:00:00 18.6 12 Sudoeste 26 Oeste 0 -- -- 31
2020-10-16 13:00:00 17.2 11 Oeste 23 Oeste 0 -- -- 35
2020-10-16 12:00:00 15.3 13 Oeste 25 Oeste 0 -- -- 39
2020-10-16 11:00:00 12.5 6 Oeste 12 Oeste 0 -- -- 48
2020-10-16 10:00:00 8.5 2 Noroeste 7 Norte 0 -- -- 65
2020-10-16 09:00:00 2.1 3 Noroeste 8 Norte 0 -- -- 87
2020-10-16 08:00:00 1.2 2 Norte 9 Norte 0 -- -- 85
2020-10-16 07:00:00 2.6 6 Norte 11 Norte 0 -- -- 80
2020-10-16 06:00:00 2.6 3 Norte 9 Norte 0 -- -- 77
2020-10-16 05:00:00 3 6 Norte 9 Norte 0 -- -- 77
2020-10-16 04:00:00 5 8 Norte 13 Noroeste 0 -- -- 72
2020-10-16 03:00:00 5.4 6 Norte 10 Norte 0 -- -- 71
2020-10-16 02:00:00 7 4 Noroeste 12 Oeste 0 -- -- 60
2020-10-16 01:00:00 6.7 0 Calma 11 Noroeste 0 -- -- 62
2020-10-16 00:00:00 9.6 8 Noroeste 16 Oeste 0 -- -- 56
2020-10-15 23:00:00 11.2 10 Oeste 15 Oeste 0 -- -- 48
2020-10-15 22:00:00 12.8 10 Oeste 14 Oeste 0 -- -- 43
2020-10-15 21:00:00 14.1 8 Oeste 20 Noroeste 0 -- -- 41
2020-10-15 20:00:00 15.3 13 Noroeste 30 Oeste 0 -- -- 36
2020-10-15 19:00:00 17.2 16 Noroeste 32 Oeste 0 -- -- 33
2020-10-15 18:00:00 19 19 Noroeste 36 Noroeste 0 -- -- 30
2020-10-15 17:00:00 19.8 22 Noroeste 42 Noroeste 0 -- -- 29
2020-10-15 16:00:00 20.3 18 Noroeste 43 Noroeste 0 -- -- 30
2020-10-15 15:00:00 19.8 22 Noroeste 42 Norte 0 -- -- 29
2020-10-15 14:00:00 19.4 23 Noroeste 41 Noroeste 0 -- -- 29
2020-10-15 13:00:00 17.9 12 Noroeste 24 Noroeste 0 -- -- 33
2020-10-15 12:00:00 16.3 11 Noroeste 26 Noroeste 0 -- -- 39
2020-10-15 11:00:00 14.1 15 Oeste 30 Oeste 0 -- -- 44
2020-10-15 10:00:00 11.2 5 Norte 21 Noroeste 0 -- -- 54
2020-10-15 09:00:00 8.5 13 Noroeste 20 Oeste 0 -- -- 60
2020-10-15 08:00:00 7.1 12 Oeste 20 Oeste 0 -- -- 63
2020-10-15 07:00:00 5.6 8 Noroeste 17 Oeste 0 -- -- 66
2020-10-15 06:00:00 7 11 Oeste 18 Norte 0 -- -- 63
2020-10-15 05:00:00 3.4 9 Noroeste 16 Noroeste 0 -- -- 77
2020-10-15 04:00:00 4.5 3 Noroeste 10 Norte 0 -- -- 66
2020-10-15 03:00:00 6.2 7 Noroeste 15 Noroeste 0 -- -- 68
2020-10-15 02:00:00 8 11 Noroeste 17 Oeste 0 -- -- 60
2020-10-15 01:00:00 5.6 3 Noroeste 8 Sudoeste 0 -- -- 67
2020-10-15 00:00:00 8 3 Sudoeste 8 Este 0 -- -- 54
2020-10-14 23:00:00 10.6 2 Noroeste 16 Oeste 0 -- -- 46
2020-10-14 22:00:00 12 12 Oeste 15 Oeste 0 -- -- 45
2020-10-14 21:00:00 14.8 10 Oeste 28 Oeste 0 -- -- 38
2020-10-14 20:00:00 16.4 16 Noroeste 36 Oeste 0 -- -- 35
2020-10-14 19:00:00 18.3 26 Noroeste 43 Oeste 0 -- -- 32
2020-10-14 18:00:00 20.3 27 Oeste 45 Oeste 0 -- -- 30
2020-10-14 17:00:00 21.4 26 Oeste 39 Oeste 0 -- -- 26
2020-10-14 16:00:00 22 22 Noroeste 42 Oeste 0 -- -- 28
2020-10-14 15:00:00 22.2 22 Oeste 40 Oeste 0 -- -- 33
2020-10-14 14:00:00 22.3 25 Oeste 42 Oeste 0 -- -- 36
2020-10-14 13:00:00 18.8 13 Oeste 28 Oeste 0 -- -- 47
2020-10-14 12:00:00 18 15 Oeste 25 Oeste 0 -- -- 51
2020-10-14 11:00:00 15.2 12 Oeste 19 Oeste 0 -- -- 59
2020-10-14 10:00:00 8.7 0 Calma 9 Noroeste 0 -- -- 81
2020-10-14 09:00:00 6 0 Calma 5 Nordeste 0 -- -- 88
2020-10-14 08:00:00 4.7 0 Calma 4 Norte 0 -- -- 90
2020-10-14 07:00:00 4.9 2 Oeste 5 Noroeste 0 -- -- 89
2020-10-14 06:00:00 5.5 2 Norte 12 Oeste 0 -- -- 87
2020-10-14 05:00:00 5.1 7 Noroeste 9 Noroeste 0 -- -- 89
2020-10-14 04:00:00 5.6 2 Sur 5 Oeste 0 -- -- 81
2020-10-14 03:00:00 6.5 0 Calma 8 Sudoeste 0 -- -- 81
2020-10-14 02:00:00 7.8 6 Norte 9 Noroeste 0 -- -- 82
2020-10-14 01:00:00 9.5 3 Sudoeste 8 Sur 0 -- -- 74
2020-10-14 00:00:00 10.9 6 Sur 10 Sur 0 -- -- 67
2020-10-13 23:00:00 12.4 4 Sudoeste 12 Sudeste 0 -- -- 62
2020-10-13 22:00:00 13.6 0 Calma 11 Sudoeste 0 -- -- 57
2020-10-13 21:00:00 15.9 8 Noroeste 18 Noroeste 0 -- -- 54
2020-10-13 20:00:00 17.7 4 Oeste 23 Noroeste 0 -- -- 49
2020-10-13 19:00:00 21.5 16 Noroeste 32 Noroeste 0 -- -- 40
2020-10-13 18:00:00 23 14 Noroeste 26 Noroeste 0 -- -- 39
2020-10-13 17:00:00 23.8 19 Noroeste 44 Noroeste 0 -- -- 36
2020-10-13 16:00:00 25.1 18 Noroeste 33 Noroeste 0 -- -- 36
2020-10-13 15:00:00 24.8 18 Noroeste 40 Noroeste 0 -- -- 36
2020-10-13 14:00:00 24 7 Noroeste 21 Noroeste 0 -- -- 36
2020-10-13 13:00:00 22.1 6 Norte 22 Sudoeste 0 -- -- 38
2020-10-13 12:00:00 19.8 6 Norte 24 Oeste 0 -- -- 40
2020-10-13 11:00:00 17.9 14 Noroeste 21 Oeste 0 -- -- 43
2020-10-13 10:00:00 12.7 8 Norte 14 Norte 0 -- -- 61
2020-10-13 09:00:00 7.4 8 Norte 14 Norte 0 -- -- 79
2020-10-13 08:00:00 5.5 10 Norte 14 Norte 0 -- -- 83
2020-10-13 07:00:00 6.4 10 Norte 18 Noroeste 0 -- -- 79
2020-10-13 06:00:00 6 9 Noroeste 13 Noroeste 0 -- -- 85
2020-10-13 05:00:00 6 10 Norte 13 Noroeste 0 -- -- 86
2020-10-13 04:00:00 -- -- -- -- -- -- -- -- --
2020-10-13 03:00:00 4.7 8 Norte 12 Norte 0 -- -- 89
2020-10-13 02:00:00 5.3 5 Nordeste 7 Norte 0 -- -- 85
2020-10-13 01:00:00 -- -- -- -- -- -- -- -- --
2020-10-13 00:00:00 9.8 10 Sudeste 16 Sudeste 0 -- -- 67
2020-10-12 23:00:00 10.1 11 Sudeste 17 Sudeste 0 -- -- 67
2020-10-12 22:00:00 10.8 14 Sudeste 21 Sudeste 0 -- -- 64
2020-10-12 21:00:00 12.5 14 Sudeste 21 Sudeste 0 -- -- 59
2020-10-12 20:00:00 14.5 14 Sudeste 24 Sudeste 0 -- -- 52
2020-10-12 19:00:00 18.2 11 Este 27 Sudeste 0 -- -- 40
2020-10-12 18:00:00 21 15 Sudoeste 28 Oeste 0 -- -- 28
2020-10-12 17:00:00 21.7 14 Oeste 30 Oeste 0 -- -- 29
2020-10-12 16:00:00 20.8 9 Oeste 23 Oeste 0 -- -- 31
2020-10-12 15:00:00 19.5 8 Norte 17 Noroeste 0 -- -- 31
2020-10-12 14:00:00 18.7 9 Noroeste 17 Norte 0 -- -- 34
2020-10-12 13:00:00 17.7 7 Noroeste 17 Noroeste 0 -- -- 38
2020-10-12 12:00:00 15.9 9 Norte 23 Oeste 0 -- -- 44
2020-10-12 11:00:00 13.8 18 Oeste 29 Oeste 0 -- -- 50
2020-10-12 10:00:00 11.3 19 Oeste 31 Oeste 0 -- -- 56
2020-10-12 09:00:00 7.1 8 Noroeste 10 Noroeste 0 -- -- 72
2020-10-12 08:00:00 6.9 5 Norte 18 Oeste 0 -- -- 69
2020-10-12 07:00:00 6.7 12 Oeste 16 Oeste 0 -- -- 70
2020-10-12 06:00:00 8.5 12 Noroeste 21 Noroeste 0 -- -- 64
2020-10-12 05:00:00 8 9 Noroeste 15 Oeste 0 -- -- 68
2020-10-12 04:00:00 -- -- -- -- -- -- -- -- --
2020-10-12 03:00:00 8 4 Sur 12 Sudeste 0 -- -- 66
2020-10-12 02:00:00 7.1 3 Sudeste 10 Noroeste 0 -- -- 73
2020-10-12 01:00:00 6.5 3 Sudoeste 8 Nordeste 0 -- -- 89
2020-10-12 00:00:00 8.1 0 Calma 8 Oeste 0 -- -- 86
2020-10-11 23:00:00 9.9 3 Sur 9 Sudeste 0 -- -- 83
2020-10-11 22:00:00 12.1 6 Sudeste 12 Sudeste 0 -- -- 73
2020-10-11 21:00:00 -- -- -- -- -- -- -- -- --
2020-10-11 20:00:00 -- -- -- -- -- -- -- -- --
2020-10-11 19:00:00 19.7 9 Norte 26 Norte 0 -- -- 27
2020-10-11 18:00:00 21.8 16 Noroeste 35 Norte 0 -- -- 19
2020-10-11 17:00:00 22.8 19 Norte 33 Noroeste 0 -- -- 23
2020-10-11 16:00:00 23.5 15 Noroeste 28 Noroeste 0 -- -- 24
2020-10-11 15:00:00 22.5 7 Norte 27 Norte 0 -- -- 36
2020-10-11 14:00:00 21.9 13 Oeste 23 Oeste 0 -- -- 44
2020-10-11 13:00:00 19.8 14 Norte 26 Norte 0 -- -- 51
2020-10-11 12:00:00 18.6 13 Norte 27 Norte 0 -- -- 55
2020-10-11 11:00:00 17.2 15 Norte 26 Norte 0 -- -- 58
2020-10-11 10:00:00 15.1 11 Norte 23 Norte 0 -- -- 71
2020-10-11 09:00:00 14.7 12 Norte 31 Nordeste 0 -- -- 79
2020-10-11 08:00:00 15.8 14 Nordeste 22 Nordeste 0 -- -- 82
2020-10-11 07:00:00 15.9 10 Norte 19 Norte 0 -- -- 83
2020-10-11 06:00:00 15.6 6 Norte 13 Norte 0 -- -- 93
2020-10-11 05:00:00 14.6 2 Oeste 8 Noroeste 0 -- -- 92
2020-10-11 04:00:00 14.2 5 Noroeste 6 Noroeste 0 -- -- 92
2020-10-11 03:00:00 14 0 Calma 5 Oeste 0 -- -- 92
2020-10-11 02:00:00 14.2 0 Calma 6 Norte 0 -- -- 89
2020-10-11 01:00:00 14.3 3 Sudoeste 7 Sudeste 0 -- -- 88
2020-10-11 00:00:00 15.1 6 Sudeste 11 Sudeste 0 -- -- 84
2020-10-10 23:00:00 15.7 6 Sur 10 Este 0 -- -- 84
2020-10-10 22:00:00 16.4 8 Este 13 Sur 0 -- -- 83
2020-10-10 21:00:00 17.5 9 Sudeste 19 Sudeste 0 -- -- 78
2020-10-10 20:00:00 18.9 14 Sur 21 Sudeste 0 -- -- 73
2020-10-10 19:00:00 20.4 16 Sur 27 Sur 0 -- -- 67
2020-10-10 18:00:00 22.2 18 Sur 23 Sudeste 0 -- -- 61
2020-10-10 17:00:00 22.6 15 Sur 22 Sur 0 -- -- 60
2020-10-10 16:00:00 22.3 14 Sudeste 23 Sur 0 -- -- 63
2020-10-10 15:00:00 20.8 14 Sur 21 Sur 0 -- -- 71
2020-10-10 14:00:00 19.2 8 Sur 19 Sudoeste 0 -- -- 78
2020-10-10 13:00:00 18.9 13 Sudeste 18 Sudoeste 0 -- -- 79
2020-10-10 12:00:00 18.3 9 Sur 19 Sur 0 -- -- 83
2020-10-10 11:00:00 18 8 Sudeste 12 Sur 0 -- -- 85
2020-10-10 10:00:00 16.3 2 Noroeste 6 Norte 0 -- -- 96
2020-10-10 09:00:00 15.2 3 Norte 13 Nordeste 0 -- -- 96
2020-10-10 08:00:00 15.1 6 Nordeste 10 Nordeste 0 -- -- 96
2020-10-10 07:00:00 15.1 0 Calma 4 Norte 0 -- -- 95
2020-10-10 06:00:00 15.3 0 Calma -- -- 0 -- -- 95
2020-10-10 05:00:00 14.9 0 Calma -- -- 0 -- -- 95
2020-10-10 04:00:00 14.5 0 Calma -- -- 0 -- -- 95
2020-10-10 03:00:00 13.5 0 Calma -- -- 0 -- -- 94
2020-10-10 02:00:00 12.7 0 Calma -- -- 0 -- -- 93
2020-10-10 01:00:00 13.3 0 Calma 4 Sudeste 0 -- -- 91
2020-10-10 00:00:00 14.9 5 Sudeste 8 Sudeste 0 -- -- 88
2020-10-09 23:00:00 16 7 Sudeste 12 Sudeste 0 -- -- 88
2020-10-09 22:00:00 17.2 10 Sudeste 16 Este 0 -- -- 86
2020-10-09 21:00:00 18 13 Sudeste 18 Sudeste 0 -- -- 82
2020-10-09 20:00:00 19.3 13 Sudeste 24 Sudeste 0 -- -- 76
2020-10-09 19:00:00 21.6 17 Sudeste 30 Sudeste 0 -- -- 67
2020-10-09 18:00:00 23.9 21 Sudeste 31 Sudeste 0 -- -- 59
2020-10-09 17:00:00 25.5 21 Sudeste 29 Sudeste 0 -- -- 53
2020-10-09 16:00:00 26.7 21 Sudeste 28 Sudeste 0 -- -- 47
2020-10-09 15:00:00 26.9 13 Sur 25 Este 0 -- -- 45
2020-10-09 14:00:00 25.9 13 Sur 20 Sudeste 0 -- -- 47
2020-10-09 13:00:00 23.2 5 Este 13 Sudeste 0 -- -- 61
2020-10-09 12:00:00 19.3 4 Noroeste 16 Norte 0 -- -- 77
2020-10-09 11:00:00 16.6 5 Norte 13 Oeste 0 -- -- 89
2020-10-09 10:00:00 15.3 5 Noroeste 13 Oeste 0 -- -- 96
2020-10-09 09:00:00 14.4 7 Noroeste 11 Noroeste 0 -- -- 96
2020-10-09 08:00:00 14.2 5 Norte 9 Norte 0 -- -- 96
2020-10-09 07:00:00 13.2 5 Norte 8 Norte 0 -- -- 96
2020-10-09 06:00:00 12.1 5 Norte 8 Noroeste 0 -- -- 95
2020-10-09 05:00:00 10.1 0 Calma 4 Noroeste 0 -- -- 91
2020-10-09 04:00:00 11.4 0 Calma 4 Oeste 0 -- -- 89
2020-10-09 03:00:00 13.3 2 Sudoeste 6 Noroeste 0 -- -- 88
2020-10-09 02:00:00 15.5 0 Calma 11 Sur 0 -- -- 85
2020-10-09 01:00:00 17.4 9 Sudoeste 15 Sur 0 -- -- 84
2020-10-09 00:00:00 18 12 Sur 14 Sur 0 -- -- 83
2020-10-08 23:00:00 18 12 Sur 17 Sur 0 -- -- 83
2020-10-08 22:00:00 17.9 12 Sur 19 Sur 0 -- -- 85
2020-10-08 21:00:00 18.2 10 Sur 22 Sur 0 -- -- 81
2020-10-08 20:00:00 19.7 17 Sudeste 23 Sur 0 -- -- 76
2020-10-08 19:00:00 22 18 Sur 27 Sudeste 0 -- -- 66
2020-10-08 18:00:00 23.9 20 Sudeste 29 Sudeste 0 -- -- 59
2020-10-08 17:00:00 25 15 Sur 27 Sudeste 0 -- -- 53
2020-10-08 16:00:00 25.2 16 Sur 28 Sur 0 -- -- 52
2020-10-08 15:00:00 25 18 Sur 27 Sur 0 -- -- 53
2020-10-08 14:00:00 25 21 Sur 30 Sur 0 -- -- 53
2020-10-08 13:00:00 24.2 16 Sur 25 Sur 0 -- -- 54
2020-10-08 12:00:00 23 12 Sur 21 Sudeste 0 -- -- 55
2020-10-08 11:00:00 18.8 0 Calma -- -- 0 -- -- 64
2020-10-08 10:00:00 14.5 0 Calma 5 Sudeste 0 -- -- 80
2020-10-08 09:00:00 8.6 0 Calma 3 Oeste 0 -- -- 94
2020-10-08 08:00:00 6.8 0 Calma 5 Noroeste 0 -- -- 92
2020-10-08 07:00:00 7.3 0 Calma 9 Sudeste 0 -- -- 92
2020-10-08 06:00:00 7.6 0 Calma 6 Noroeste 0 -- -- 91
2020-10-08 05:00:00 8.4 0 Calma 7 Oeste 0 -- -- 91
2020-10-08 04:00:00 9.2 4 Oeste 6 Norte 0 -- -- 90
2020-10-08 03:00:00 9.7 4 Norte 5 Norte 0 -- -- 89
2020-10-08 02:00:00 11 4 Sudoeste 7 Oeste 0 -- -- 84
2020-10-08 01:00:00 12.1 4 Norte 5 Nordeste 0 -- -- 81
2020-10-08 00:00:00 14.4 3 Sur 14 Sudeste 0 -- -- 73
2020-10-07 23:00:00 16.1 10 Sudeste 18 Sudeste 0 -- -- 67
2020-10-07 22:00:00 18 13 Sudeste 20 Sur 0 -- -- 61
2020-10-07 21:00:00 20.1 14 Sur 26 Sur 0 -- -- 57
2020-10-07 20:00:00 22 21 Sur 29 Sur 0 -- -- 50
2020-10-07 19:00:00 24.6 21 Sudeste 27 Sudeste 0 -- -- 44
2020-10-07 18:00:00 27.5 20 Sudeste 25 Sudeste 0 -- -- 37
2020-10-07 17:00:00 29.8 5 Norte 13 Nordeste 0 -- -- 28
2020-10-07 16:00:00 29.8 6 Noroeste 17 Sudeste 0 -- -- 28
2020-10-07 15:00:00 28.9 6 Nordeste 20 Noroeste 0 -- -- 26
2020-10-07 14:00:00 27.9 6 Noroeste 21 Noroeste 0 -- -- 33
2020-10-07 13:00:00 26.5 13 Noroeste 23 Oeste 0 -- -- 40
2020-10-07 12:00:00 24 6 Noroeste 13 Noroeste 0 -- -- 50
2020-10-07 11:00:00 20.2 8 Norte 14 Norte 0 -- -- 60
2020-10-07 10:00:00 15 6 Norte 13 Norte 0 -- -- 77
2020-10-07 09:00:00 10.4 6 Norte 10 Noroeste 0 -- -- 90
2020-10-07 08:00:00 9.1 8 Noroeste 13 Norte 0 -- -- 89
2020-10-07 07:00:00 10.8 9 Norte 14 Noroeste 0 -- -- 87
2020-10-07 06:00:00 10.4 10 Norte 14 Norte 0 -- -- 88
2020-10-07 05:00:00 11.1 8 Norte 13 Norte 0 -- -- 85
2020-10-07 04:00:00 11.3 10 Norte 14 Norte 0 -- -- 85
2020-10-07 03:00:00 10.8 4 Norte 12 Noroeste 0 -- -- 83
2020-10-07 02:00:00 10.4 0 Calma -- -- 0 -- -- 82
2020-10-07 01:00:00 11.8 0 Calma 8 Noroeste 0 -- -- 78
2020-10-07 00:00:00 14 0 Calma 12 Noroeste 0 -- -- 68
2020-10-06 23:00:00 14.3 4 Este 13 Este 0 -- -- 69
2020-10-06 22:00:00 16.5 4 Sudoeste 12 Este 0 -- -- 61
2020-10-06 21:00:00 18.8 5 Este 17 Noroeste 0 -- -- 51
2020-10-06 20:00:00 21.9 13 Noroeste 24 Noroeste 0 -- -- 46
2020-10-06 19:00:00 24.5 13 Oeste 28 Noroeste 0 -- -- 40
2020-10-06 18:00:00 27 14 Oeste 26 Oeste 0 -- -- 36
2020-10-06 17:00:00 26.9 12 Noroeste 27 Oeste 0 -- -- 37
2020-10-06 16:00:00 26.6 15 Oeste 27 Oeste 0 -- -- 37
2020-10-06 15:00:00 26.1 14 Oeste 28 Oeste 0 -- -- 39
2020-10-06 14:00:00 24.7 18 Oeste 29 Noroeste 0 -- -- 41
2020-10-06 13:00:00 23.1 11 Norte 35 Oeste 0 -- -- 41
2020-10-06 12:00:00 20.6 7 Norte 12 Norte 0 -- -- 43
2020-10-06 11:00:00 17.2 5 Noroeste 10 Oeste 0 -- -- 50
2020-10-06 10:00:00 12.1 4 Norte 10 Nordeste 0 -- -- 70
2020-10-06 09:00:00 6.1 3 Noroeste 7 Noroeste 0 -- -- 93
2020-10-06 08:00:00 3.9 3 Noroeste 5 Noroeste 0 -- -- 91
2020-10-06 07:00:00 4.2 2 Oeste 6 Oeste 0 -- -- 90
2020-10-06 06:00:00 4.8 0 Calma 12 Norte 0 -- -- 86
2020-10-06 05:00:00 5.1 5 Norte 9 Nordeste 0 -- -- 85
2020-10-06 04:00:00 6.2 4 Norte 11 Noroeste 0 -- -- 83
2020-10-06 03:00:00 6.4 7 Norte 12 Oeste 0 -- -- 81
2020-10-06 02:00:00 6 3 Norte 10 Noroeste 0 -- -- 77
2020-10-06 01:00:00 7.1 4 Norte 8 Norte 0 -- -- 70
2020-10-06 00:00:00 8.6 3 Noroeste 9 Sudeste 0 -- -- 71
2020-10-05 23:00:00 9.5 5 Este 12 Oeste 0 -- -- 65
2020-10-05 22:00:00 11.3 0 Calma 10 Oeste 0 -- -- 61
2020-10-05 21:00:00 14.4 7 Oeste 21 Oeste 0 -- -- 55
2020-10-05 20:00:00 16.9 15 Noroeste 28 Noroeste 0 -- -- 41
2020-10-05 19:00:00 18.8 17 Noroeste 31 Oeste 0 -- -- 37
2020-10-05 18:00:00 19.9 21 Noroeste 35 Oeste 0 -- -- 37
2020-10-05 17:00:00 20.3 20 Noroeste 37 Oeste 0 -- -- 35
2020-10-05 16:00:00 21.1 21 Noroeste 37 Oeste 0 -- -- 37
2020-10-05 15:00:00 21.2 20 Noroeste 37 Oeste 0 -- -- 37
2020-10-05 14:00:00 20.1 21 Noroeste 37 Oeste 0 -- -- 41
2020-10-05 13:00:00 19.3 17 Noroeste 35 Noroeste 0 -- -- 41
2020-10-05 12:00:00 18 11 Noroeste 29 Norte 0 -- -- 48
2020-10-05 11:00:00 15.8 12 Norte 19 Norte 0 -- -- 58
2020-10-05 10:00:00 12.8 7 Noroeste 15 Oeste 0 -- -- 76
2020-10-05 09:00:00 9.3 8 Oeste 12 Oeste 0 -- -- 92
2020-10-05 08:00:00 7.2 3 Noroeste 6 Noroeste 0 -- -- 92
2020-10-05 07:00:00 7.4 0 Calma 9 Norte 0 -- -- 90
2020-10-05 06:00:00 7.8 6 Noroeste 9 Oeste 0 -- -- 90
2020-10-05 05:00:00 8.6 3 Noroeste 8 Norte 0 -- -- 87
2020-10-05 04:00:00 9.5 6 Norte 10 Norte 0 -- -- 86
2020-10-05 03:00:00 9 0 Calma 9 Sudoeste 0 -- -- 87
2020-10-05 02:00:00 9.5 4 Oeste 9 Sudoeste 0 -- -- 83
2020-10-05 01:00:00 11.9 0 Calma 14 Sudoeste 0 -- -- 75
2020-10-05 00:00:00 13.9 8 Norte 28 Noroeste 0 -- -- 67
2020-10-04 23:00:00 15.3 17 Noroeste 39 Noroeste 0 -- -- 64
2020-10-04 22:00:00 15.7 21 Noroeste 36 Noroeste 0 -- -- 62
2020-10-04 21:00:00 16.4 19 Noroeste 37 Oeste 0 -- -- 63
2020-10-04 20:00:00 17.1 21 Noroeste 55 Noroeste 0 -- -- 58
2020-10-04 19:00:00 18 30 Noroeste 53 Noroeste 0 -- -- 52
2020-10-04 18:00:00 19 22 Noroeste 42 Noroeste 0 -- -- 51
2020-10-04 17:00:00 20.9 27 Noroeste 53 Noroeste 0 -- -- 45
2020-10-04 16:00:00 22 25 Noroeste 42 Oeste 0 -- -- 40
2020-10-04 15:00:00 22.3 13 Oeste 30 Sudoeste 0 -- -- 38
2020-10-04 14:00:00 20.3 17 Oeste 29 Oeste 0 -- -- 42
2020-10-04 13:00:00 19.6 14 Oeste 35 Sudoeste 0 -- -- 42
2020-10-04 12:00:00 18.2 14 Oeste 28 Oeste 0 -- -- 46
2020-10-04 11:00:00 16.1 12 Oeste 19 Oeste 0 -- -- 54
2020-10-04 10:00:00 11.5 6 Norte 9 Norte 0 -- -- 82
2020-10-04 09:00:00 3.4 0 Calma -- -- 0 -- -- 95
2020-10-04 08:00:00 1.4 0 Calma 0 Calma 0 -- -- 94
2020-10-04 07:00:00 1.9 0 Calma -- -- 0 -- -- 93
2020-10-04 06:00:00 2.2 0 Calma -- -- 0 -- -- 92
2020-10-04 05:00:00 3 0 Calma 4 Norte 0 -- -- 90
2020-10-04 04:00:00 4.2 5 Norte 7 Norte 0 -- -- 89
2020-10-04 03:00:00 5.1 3 Este 7 Este 0 -- -- 86
2020-10-04 02:00:00 6.5 2 Norte 8 Este 0 -- -- 80
2020-10-04 01:00:00 8.5 4 Sur 12 Noroeste 0 -- -- 71
2020-10-04 00:00:00 9.2 3 Norte 7 Norte 0 -- -- 72
2020-10-03 23:00:00 8.9 6 Noroeste 12 Oeste 0 -- -- 75
2020-10-03 22:00:00 11.3 4 Sudoeste 18 Oeste 0 -- -- 66
2020-10-03 21:00:00 13.8 10 Oeste 22 Oeste 0 -- -- 54
2020-10-03 20:00:00 15 12 Noroeste 28 Noroeste 0 -- -- 48
2020-10-03 19:00:00 17.1 14 Noroeste 33 Oeste 0 -- -- 43
2020-10-03 18:00:00 18.5 18 Noroeste 40 Noroeste 0 -- -- 38
2020-10-03 17:00:00 18.8 28 Noroeste 51 Oeste 0 -- -- 38
2020-10-03 16:00:00 18.6 30 Noroeste 51 Oeste 0 -- -- 40
2020-10-03 15:00:00 17.9 28 Noroeste 54 Noroeste 0 -- -- 45
2020-10-03 14:00:00 16.7 32 Noroeste 49 Noroeste 0 -- -- 48
2020-10-03 13:00:00 15.9 30 Noroeste 49 Oeste 0 -- -- 51
2020-10-03 12:00:00 15.4 12 Noroeste 26 Noroeste 0 -- -- 54
2020-10-03 11:00:00 13.2 18 Noroeste 33 Oeste 0 -- -- 59
2020-10-03 10:00:00 11.4 12 Noroeste 25 Noroeste 0 -- -- 64
2020-10-03 09:00:00 9.9 13 Noroeste 31 Noroeste 0 -- -- 68
2020-10-03 08:00:00 9 18 Noroeste 33 Noroeste 0 -- -- 71
2020-10-03 07:00:00 9 15 Noroeste 40 Noroeste 0 -- -- 70
2020-10-03 06:00:00 9.5 16 Noroeste 32 Oeste 0 -- -- 68
2020-10-03 05:00:00 9.2 17 Oeste 26 Oeste 0 -- -- 72
2020-10-03 04:00:00 8 5 Norte 15 Noroeste 0 -- -- 78
2020-10-03 03:00:00 8.1 4 Norte 15 Noroeste 0 -- -- 78
2020-10-03 02:00:00 10.8 11 Noroeste 31 Oeste 0 -- -- 65
2020-10-03 01:00:00 10.5 15 Noroeste 31 Noroeste 0 -- -- 69
2020-10-03 00:00:00 11.7 20 Oeste 37 Noroeste 0 -- -- 63
2020-10-02 23:00:00 12 19 Noroeste 35 Oeste 0 -- -- 63
2020-10-02 22:00:00 10.7 10 Noroeste 28 Oeste 0 -- -- 77
2020-10-02 21:00:00 11.7 17 Noroeste 39 Oeste 0 -- -- 71
2020-10-02 20:00:00 11.4 27 Noroeste 47 Noroeste 1 -- -- 70
2020-10-02 19:00:00 10 23 Noroeste 44 Noroeste 1.2 -- -- 89
2020-10-02 18:00:00 10.1 33 Norte 51 Noroeste 3.6 -- -- 95
2020-10-02 17:00:00 12.9 32 Noroeste 59 Noroeste 1 -- -- 91
2020-10-02 16:00:00 23.9 32 Oeste 62 Sudoeste 0 -- -- 45
2020-10-02 15:00:00 25.5 28 Oeste 58 Oeste 0 -- -- 42
2020-10-02 14:00:00 23.2 19 Oeste 53 Sudoeste 0 -- -- 45
2020-10-02 13:00:00 21.6 17 Sudoeste 39 Oeste 0 -- -- 48
2020-10-02 12:00:00 20.1 15 Sudoeste 44 Sudoeste 0 -- -- 51
2020-10-02 11:00:00 18.8 8 Oeste 24 Oeste 0 -- -- 53
2020-10-02 10:00:00 18.6 12 Oeste 39 Oeste 0 -- -- 54
2020-10-02 09:00:00 18.6 21 Oeste 43 Oeste 0 -- -- 52
2020-10-02 08:00:00 18.3 10 Oeste 32 Oeste 0 -- -- 53
2020-10-02 07:00:00 18.2 12 Oeste 27 Oeste 0 -- -- 56
2020-10-02 06:00:00 15.4 9 Sudoeste 19 Sudoeste 0 -- -- 68
2020-10-02 05:00:00 13.1 3 Sudeste 10 Este 0 -- -- 75
2020-10-02 04:00:00 11.5 3 Sudeste 5 Sur 0 -- -- 73
2020-10-02 03:00:00 12.8 0 Calma 13 Noroeste 0 -- -- 71
2020-10-02 02:00:00 13.9 2 Sur 13 Noroeste 0 -- -- 61
2020-10-02 01:00:00 15.7 7 Norte 13 Este 0 -- -- 58
2020-10-02 00:00:00 18.1 0 Calma 19 Oeste 0 -- -- 50
2020-10-01 23:00:00 20 12 Oeste 24 Oeste 0 -- -- 43
2020-10-01 22:00:00 17.5 2 Este 9 Sudoeste 0 -- -- 60
2020-10-01 21:00:00 20.5 0 Calma 22 Sudeste 0 -- -- 57
2020-10-01 20:00:00 24.4 12 Sudeste 18 Sudeste 0 -- -- 45
2020-10-01 19:00:00 26.9 13 Oeste 23 Oeste 0 -- -- 28
2020-10-01 18:00:00 28.7 15 Oeste 30 Oeste 0 -- -- 26
2020-10-01 17:00:00 29.8 17 Noroeste 32 Noroeste 0 -- -- 24
2020-10-01 16:00:00 29.5 15 Noroeste 33 Noroeste 0 -- -- 24
2020-10-01 15:00:00 29.1 13 Noroeste 28 Noroeste 0 -- -- 25
2020-10-01 14:00:00 28.6 18 Oeste 30 Oeste 0 -- -- 29
2020-10-01 13:00:00 27.1 19 Oeste 34 Oeste 0 -- -- 33
2020-10-01 12:00:00 25.3 13 Oeste 26 Oeste 0 -- -- 37
2020-10-01 11:00:00 21.8 7 Norte 15 Norte 0 -- -- 48
2020-10-01 10:00:00 16.4 5 Norte 12 Norte 0 -- -- 77
2020-10-01 09:00:00 10.8 2 Noroeste 6 Oeste 0 -- -- 96
2020-10-01 08:00:00 8.1 2 Noroeste 6 Norte 0 -- -- 95
2020-10-01 07:00:00 9.1 3 Norte 4 Noroeste 0 -- -- 94
2020-10-01 06:00:00 10.4 3 Nordeste 8 Noroeste 0 -- -- 94
2020-10-01 05:00:00 11.6 6 Noroeste 11 Noroeste 0 -- -- 95
2020-10-01 04:00:00 10.9 4 Noroeste 5 Noroeste 0 -- -- 93
2020-10-01 03:00:00 11.1 2 Oeste 4 Norte 0 -- -- 91
2020-10-01 02:00:00 11.8 3 Noroeste 6 Noroeste 0 -- -- 91
2020-10-01 01:00:00 13.3 0 Calma 9 Sudoeste 0 -- -- 92
2020-10-01 00:00:00 14.4 3 Sur 8 Sudeste 0 -- -- 87